Mexico, MO (65265)

10:41 PM CDT on August 25, 2016 (GMT -0500)
NonFedAWOS | | Change Station

Elev 823 ft 39.16 °N, 91.82 °W | Updated 468 days ago

Thunderstorm
Thunderstorm
72 °F
Feels Like 72 °F
N
6
Wind Variable Wind from NE
Gusts mph

Today
High -- | Low -- °F
--% Chance of Precip.
Yesterday
High -- | Low -- °F
Precip. -- in
Pressure 30.05 in
Visibility 10.0 miles
Clouds Mostly Cloudy 8000 ft
Dew Point 69 °F
Humidity 88%
Rainfall in
Snow Depth Not available.
6:30 AM 7:47 PM
Last Quarter, 39% visible
METAR KCOU 260254Z AUTO 36006KT 10SM BKN080 24/23 A3007 RMK AO2 SLP174 T02440228 51016
Pressure 30.05 in
Visibility 10.0 miles
Clouds Mostly Cloudy 8000 ft
Dew Point 69 °F
Humidity 88%
Rainfall in
Snow Depth Not available.
6:30 AM 7:47 PM
Last Quarter, 39% visible
METAR KCOU 260254Z AUTO 36006KT 10SM BKN080 24/23 A3007 RMK AO2 SLP174 T02440228 51016
A tropical disturbance pushing toward the Bahamas, is expected to develop into a tropical depression or storm, and will likely target Florida and the Gulf Coast this weekend into next week.

Right now, the disturbance remains a broad area of low pressure pushing through the Dominican Republic and Haiti, headed toward the southeast Bahamas. Rainfall totals over 3 inches (with locally higher amounts) are expected in HispaƱiola, particularly over elevated terrain.

10-Day Weather Forecast

Almanac

Astronomy

Aug. 25, 2016 Rise Set
Actual Time
Civil Twilight
Nautical Twilight
Astronomical Twilight
Moon
Length of Visible Light
Length of Day
Tomorrow will be .
, % of the Moon is Illuminated

Today's Extremes

State Highs State Lows

Community

WunderPhotos

Upload Photos

1,935,057 photos uploaded!

WunderBlog® & News

Nearby

Air Quality

  Air Quality AQ Index Pollutant
Not available.

Snow Depth

Station Depth Elevation

Earthquake Activity

City Distance Mag. Time & Date
Minimum magnitude displayed is 2.5.

Coastal Water Temperatures

Place Temperature

Stations

Nearby Weather Stations

Station Location Temp. Windchill Dew Point Humidity Wind Precip. Elev Updated Type
                   

Watches & Warnings

There are currently no watches in effect.